createdAt,value
2022-09-27T00:09:34.934Z,100.00
2022-09-27T00:19:59.011Z,100.00
2022-09-27T00:30:20.464Z,100.00
2022-09-27T00:40:43.148Z,100.00
2022-09-27T00:51:06.760Z,100.00
2022-09-27T01:01:30.590Z,100.00
2022-09-27T01:12:04.727Z,100.00
2022-09-27T01:22:45.701Z,100.00
2022-09-27T01:33:13.273Z,100.00
2022-09-27T01:43:37.693Z,100.00
2022-09-27T01:54:02.861Z,100.00
2022-09-27T02:04:25.298Z,100.00
2022-09-27T02:14:49.817Z,100.00
2022-09-27T02:25:23.872Z,100.00
2022-09-27T02:35:46.391Z,100.00
2022-09-27T02:46:13.835Z,100.00
2022-09-27T02:56:40.171Z,100.00
2022-09-27T03:07:01.865Z,100.00
2022-09-27T03:17:23.644Z,100.00
2022-09-27T03:27:44.985Z,100.00
2022-09-27T03:38:07.352Z,100.00
2022-09-27T03:48:31.139Z,100.00
2022-09-27T03:58:52.525Z,100.00
2022-09-27T04:09:13.966Z,100.00
2022-09-27T04:19:36.641Z,100.00
2022-09-27T04:29:57.994Z,100.00
2022-09-27T04:40:20.226Z,100.00
2022-09-27T04:50:41.688Z,100.00
2022-09-27T05:01:04.177Z,100.00
2022-09-27T05:11:26.400Z,100.00
2022-09-27T05:21:47.876Z,100.00
2022-09-27T05:32:09.310Z,100.00
2022-09-27T05:42:30.700Z,100.00
2022-09-27T05:52:52.444Z,100.00
2022-09-27T06:03:14.181Z,100.00
2022-09-27T06:13:42.092Z,100.00
2022-09-27T06:24:04.044Z,100.00
2022-09-27T06:34:25.394Z,100.00
2022-09-27T06:44:50.410Z,100.00
2022-09-27T06:55:12.009Z,100.00
2022-09-27T07:05:33.451Z,100.00
2022-09-27T07:15:54.813Z,100.00
2022-09-27T07:26:16.330Z,100.00
2022-09-27T07:36:37.796Z,100.00
2022-09-27T07:46:59.150Z,100.00
2022-09-27T07:57:22.188Z,100.00
2022-09-27T08:07:44.222Z,100.00
2022-09-27T08:18:06.606Z,100.00
2022-09-27T08:28:28.352Z,100.00
2022-09-27T08:38:50.535Z,100.00
2022-09-27T08:49:19.133Z,100.00
2022-09-27T08:59:41.940Z,100.00
2022-09-27T09:10:13.889Z,100.00
2022-09-27T09:20:54.230Z,100.00
2022-09-27T09:31:15.662Z,100.00
2022-09-27T09:41:43.459Z,100.00
2022-09-27T09:52:25.102Z,100.00
2022-09-27T10:02:47.420Z,100.00
2022-09-27T10:13:14.194Z,100.00
2022-09-27T10:23:35.668Z,100.00
2022-09-27T10:34:04.445Z,100.00
2022-09-27T10:44:27.277Z,100.00
2022-09-27T10:55:00.808Z,100.00
2022-09-27T11:05:27.492Z,100.00
2022-09-27T11:16:07.857Z,100.00
2022-09-27T11:26:38.351Z,100.00
2022-09-27T11:37:09.778Z,100.00
2022-09-27T11:47:57.191Z,100.00
2022-09-27T11:58:26.418Z,100.00
2022-09-27T12:09:02.941Z,100.00
2022-09-27T12:19:27.613Z,100.00
2022-09-27T12:29:50.370Z,100.00
2022-09-27T12:40:14.917Z,100.00
2022-09-27T12:50:42.952Z,100.00
2022-09-27T13:01:14.832Z,100.00
2022-09-27T13:11:55.170Z,100.00
2022-09-27T13:22:28.741Z,100.00
2022-09-27T13:33:08.602Z,100.00
2022-09-27T13:43:41.993Z,100.00
2022-09-27T13:54:23.309Z,100.00
2022-09-27T14:04:48.336Z,100.00
2022-09-27T14:15:17.820Z,98.21
2022-09-27T14:25:44.377Z,97.18
2022-09-27T14:36:35.059Z,96.62
2022-09-27T14:47:29.562Z,86.53
2022-09-27T14:57:52.604Z,91.31
2022-09-27T15:08:15.471Z,93.90
2022-09-27T15:18:44.533Z,96.02
2022-09-27T15:29:06.215Z,100.00
2022-09-27T15:39:33.567Z,100.00
2022-09-27T15:49:54.935Z,100.00
2022-09-27T16:00:17.853Z,100.00
2022-09-27T16:10:40.832Z,100.00
2022-09-27T16:21:02.238Z,100.00
2022-09-27T16:31:23.681Z,100.00
2022-09-27T16:41:45.078Z,100.00
2022-09-27T16:52:06.424Z,100.00
2022-09-27T17:02:27.988Z,100.00
2022-09-27T17:12:49.759Z,100.00
2022-09-27T17:23:11.112Z,100.00
2022-09-27T17:33:32.869Z,100.00
2022-09-27T17:43:56.414Z,100.00
2022-09-27T17:54:20.227Z,100.00
2022-09-27T18:04:41.785Z,100.00
2022-09-27T18:15:04.149Z,100.00
2022-09-27T18:25:25.596Z,100.00
2022-09-27T18:35:47.454Z,100.00
2022-09-27T18:46:34.070Z,100.00
2022-09-27T18:56:52.349Z,100.00
2022-09-27T19:07:13.895Z,100.00
2022-09-27T19:17:35.344Z,100.00
2022-09-27T19:27:56.802Z,100.00
2022-09-27T19:38:18.249Z,100.00
2022-09-27T19:48:39.779Z,100.00
2022-09-27T19:59:06.297Z,100.00
2022-09-27T20:09:28.579Z,100.00
2022-09-27T20:19:49.934Z,100.00
2022-09-27T20:30:11.574Z,100.00
2022-09-27T20:40:32.999Z,100.00
2022-09-27T20:51:01.257Z,100.00
2022-09-27T21:01:24.443Z,100.00
2022-09-27T21:11:46.958Z,100.00
2022-09-27T21:22:08.515Z,100.00
2022-09-27T21:32:29.940Z,100.00
2022-09-27T21:42:54.476Z,100.00
2022-09-27T21:53:18.936Z,100.00
2022-09-27T22:03:42.717Z,100.00
2022-09-27T22:14:06.749Z,100.00
2022-09-27T22:24:28.128Z,100.00
2022-09-27T22:34:50.128Z,100.00
2022-09-27T22:45:11.546Z,100.00
2022-09-27T22:55:33.046Z,100.00
2022-09-27T23:06:01.160Z,100.00
2022-09-27T23:16:25.625Z,100.00
2022-09-27T23:27:07.017Z,100.00
2022-09-27T23:37:29.406Z,100.00
2022-09-27T23:47:50.995Z,100.00
2022-09-27T23:58:12.575Z,100.00
